createdAt,value
2022-08-21T00:01:56.723Z,21.90
2022-08-21T00:04:29.423Z,21.90
2022-08-21T00:07:00.734Z,21.90
2022-08-21T00:09:30.639Z,21.90
2022-08-21T00:12:00.195Z,21.90
2022-08-21T00:14:32.229Z,21.90
2022-08-21T00:17:01.811Z,21.90
2022-08-21T00:19:31.785Z,21.90
2022-08-21T00:22:01.340Z,21.90
2022-08-21T00:24:30.870Z,21.90
2022-08-21T00:27:01.059Z,21.90
2022-08-21T00:29:30.714Z,21.90
2022-08-21T00:32:01.120Z,21.90
2022-08-21T00:34:30.670Z,21.90
2022-08-21T00:37:02.809Z,22.00
2022-08-21T00:39:32.785Z,22.00
2022-08-21T00:42:04.523Z,21.90
2022-08-21T00:44:34.028Z,22.00
2022-08-21T00:47:03.495Z,22.00
2022-08-21T00:49:33.017Z,22.00
2022-08-21T00:52:02.723Z,22.00
2022-08-21T00:54:32.396Z,22.00
2022-08-21T00:57:03.574Z,22.00
2022-08-21T00:59:35.431Z,22.00
2022-08-21T01:02:05.993Z,22.00
2022-08-21T01:04:36.338Z,22.00
2022-08-21T01:07:05.917Z,22.00
2022-08-21T01:09:35.683Z,22.00
2022-08-21T01:12:05.628Z,22.00
2022-08-21T01:14:35.229Z,22.00
2022-08-21T01:17:05.383Z,22.00
2022-08-21T01:19:34.823Z,22.00
2022-08-21T01:22:04.289Z,22.00
2022-08-21T01:24:34.448Z,22.00
2022-08-21T01:27:03.922Z,22.00
2022-08-21T01:29:39.603Z,21.90
2022-08-21T01:32:10.517Z,21.90
2022-08-21T01:34:40.920Z,21.90
2022-08-21T01:37:10.516Z,21.90
2022-08-21T01:39:40.685Z,22.00
2022-08-21T01:42:10.236Z,22.00
2022-08-21T01:44:39.714Z,22.00
2022-08-21T01:47:09.837Z,22.00
2022-08-21T01:49:39.321Z,22.00
2022-08-21T01:52:09.503Z,22.00
2022-08-21T01:54:39.323Z,22.00
2022-08-21T01:57:12.186Z,22.00
2022-08-21T01:59:42.185Z,22.00
2022-08-21T02:02:11.739Z,22.00
2022-08-21T02:04:41.729Z,22.00
2022-08-21T02:07:14.371Z,21.90
2022-08-21T02:09:44.920Z,21.90
2022-08-21T02:12:15.399Z,21.90
2022-08-21T02:14:44.825Z,22.00
2022-08-21T02:17:14.256Z,22.00
2022-08-21T02:19:44.167Z,22.00
2022-08-21T02:22:13.617Z,22.00
2022-08-21T02:24:53.863Z,22.00
2022-08-21T02:27:26.055Z,22.00
2022-08-21T02:29:57.834Z,22.00
2022-08-21T02:32:27.789Z,22.10
2022-08-21T02:34:57.753Z,22.00
2022-08-21T02:37:27.488Z,22.10
2022-08-21T02:39:56.949Z,22.10
2022-08-21T02:42:26.463Z,22.10
2022-08-21T02:44:55.966Z,22.00
2022-08-21T02:47:25.406Z,22.10
2022-08-21T02:49:55.245Z,22.10
2022-08-21T02:52:26.291Z,22.10
2022-08-21T02:54:55.854Z,22.10
2022-08-21T02:57:25.366Z,22.20
2022-08-21T02:59:54.895Z,22.20
2022-08-21T03:02:26.724Z,22.20
2022-08-21T03:04:56.432Z,22.20
2022-08-21T03:07:25.851Z,22.20
2022-08-21T03:09:56.026Z,22.20
2022-08-21T03:12:27.820Z,22.20
2022-08-21T03:15:00.007Z,22.30
2022-08-21T03:17:30.259Z,22.20
2022-08-21T03:20:00.222Z,22.20
2022-08-21T03:22:30.812Z,22.20
2022-08-21T03:25:01.253Z,22.20
2022-08-21T03:27:36.390Z,22.20
2022-08-21T03:30:10.685Z,22.20
2022-08-21T03:32:40.338Z,22.20
2022-08-21T03:35:10.051Z,22.30
2022-08-21T03:37:39.564Z,22.30
2022-08-21T03:40:09.991Z,22.40
2022-08-21T03:42:39.818Z,22.30
2022-08-21T03:45:09.600Z,22.30
2022-08-21T03:47:39.076Z,22.30
2022-08-21T03:50:10.001Z,22.20
2022-08-21T03:52:39.585Z,22.20
2022-08-21T03:55:09.135Z,22.20
2022-08-21T03:57:38.564Z,22.20
2022-08-21T04:00:10.754Z,22.20
2022-08-21T04:02:40.987Z,22.20
2022-08-21T04:05:10.480Z,22.20
2022-08-21T04:07:39.944Z,22.20
2022-08-21T04:10:09.922Z,22.20
2022-08-21T04:12:39.464Z,22.20
2022-08-21T04:15:09.047Z,22.20
2022-08-21T04:17:38.594Z,22.20
2022-08-21T04:20:08.391Z,22.20
2022-08-21T04:22:37.863Z,22.20
2022-08-21T04:25:07.654Z,22.20
2022-08-21T04:27:37.108Z,22.20
2022-08-21T04:30:06.828Z,22.20
2022-08-21T04:32:37.085Z,22.20
2022-08-21T04:35:07.764Z,22.20
2022-08-21T04:37:41.983Z,22.20
2022-08-21T04:40:13.020Z,22.30
2022-08-21T04:42:46.663Z,22.20
2022-08-21T04:45:24.178Z,22.20
2022-08-21T04:47:54.147Z,22.20
2022-08-21T04:50:30.594Z,22.20
2022-08-21T04:53:07.036Z,22.20
2022-08-21T04:55:36.568Z,22.20
2022-08-21T04:58:07.079Z,22.20
2022-08-21T05:00:36.635Z,22.20
2022-08-21T05:03:06.141Z,22.10
2022-08-21T05:05:35.623Z,22.20
2022-08-21T05:08:05.262Z,22.10
2022-08-21T05:10:34.809Z,22.10
2022-08-21T05:13:04.258Z,22.10
2022-08-21T05:15:34.024Z,22.10
2022-08-21T05:18:03.477Z,22.10
2022-08-21T05:20:32.972Z,22.10
2022-08-21T05:23:02.515Z,22.10
2022-08-21T05:25:32.067Z,22.10
2022-08-21T05:28:04.154Z,22.10
2022-08-21T05:30:33.698Z,22.10
2022-08-21T05:33:03.556Z,22.10
2022-08-21T05:35:34.333Z,22.10
2022-08-21T05:38:03.820Z,22.10
2022-08-21T05:40:33.495Z,22.10
2022-08-21T05:43:03.438Z,22.10
2022-08-21T05:45:42.084Z,22.20
2022-08-21T05:48:14.511Z,22.10
2022-08-21T05:50:44.485Z,22.10
2022-08-21T05:53:14.555Z,22.10
2022-08-21T05:55:46.227Z,22.20
2022-08-21T05:58:17.263Z,22.20
2022-08-21T06:00:49.475Z,22.30
2022-08-21T06:03:26.007Z,22.30
2022-08-21T06:05:55.497Z,22.30
2022-08-21T06:08:25.493Z,22.20
2022-08-21T06:10:55.171Z,22.20
2022-08-21T06:13:24.760Z,22.20
2022-08-21T06:16:03.016Z,22.10
2022-08-21T06:18:32.491Z,22.10
2022-08-21T06:21:01.889Z,22.10
2022-08-21T06:23:33.125Z,22.10
2022-08-21T06:26:06.846Z,22.10
2022-08-21T06:28:36.650Z,22.20
2022-08-21T06:31:22.553Z,22.20
2022-08-21T06:33:52.437Z,22.30
2022-08-21T06:36:23.011Z,22.30
2022-08-21T06:38:52.569Z,22.30
2022-08-21T06:41:24.308Z,22.30
2022-08-21T06:43:56.189Z,22.30
2022-08-21T06:46:28.737Z,22.20
2022-08-21T06:48:58.378Z,22.20
2022-08-21T06:51:28.251Z,22.30
2022-08-21T06:53:59.475Z,22.40
2022-08-21T06:56:29.193Z,22.60
2022-08-21T06:59:01.127Z,22.70
2022-08-21T07:01:30.686Z,22.60
2022-08-21T07:04:00.182Z,22.80
2022-08-21T07:06:29.685Z,23.60
2022-08-21T07:09:04.570Z,24.10
2022-08-21T07:11:39.384Z,23.80
2022-08-21T07:14:20.120Z,24.90
2022-08-21T07:16:50.578Z,26.10
2022-08-21T07:19:20.356Z,25.40
2022-08-21T07:21:49.855Z,24.70
2022-08-21T07:24:19.803Z,24.10
2022-08-21T07:26:49.292Z,23.90
2022-08-21T07:29:19.528Z,24.00
2022-08-21T07:31:48.996Z,24.10
2022-08-21T07:34:18.473Z,25.10
2022-08-21T07:36:48.733Z,24.80
2022-08-21T07:39:19.168Z,24.30
2022-08-21T07:41:48.672Z,24.20
2022-08-21T07:44:18.182Z,24.80
2022-08-21T07:46:47.629Z,24.60
2022-08-21T07:49:17.326Z,24.30
2022-08-21T07:51:46.923Z,24.20
2022-08-21T07:54:17.326Z,24.00
2022-08-21T07:56:47.827Z,23.90
2022-08-21T07:59:17.246Z,23.90
2022-08-21T08:01:46.736Z,23.90
2022-08-21T08:04:17.729Z,23.90
2022-08-21T08:06:47.857Z,24.40
2022-08-21T08:09:17.524Z,25.30
2022-08-21T08:11:46.934Z,25.70
2022-08-21T08:14:17.695Z,25.80
2022-08-21T08:16:47.109Z,26.10
2022-08-21T08:19:16.551Z,26.40
2022-08-21T08:21:46.060Z,26.60
2022-08-21T08:24:19.432Z,26.10
2022-08-21T08:26:53.993Z,26.20
2022-08-21T08:29:24.403Z,25.90
2022-08-21T08:31:54.047Z,25.70
2022-08-21T08:34:25.503Z,25.40
2022-08-21T08:36:55.568Z,25.30
2022-08-21T08:39:26.302Z,25.30
2022-08-21T08:42:01.715Z,25.60
2022-08-21T08:44:34.849Z,25.40
2022-08-21T08:47:04.286Z,25.60
2022-08-21T08:49:42.768Z,25.90
2022-08-21T08:52:23.340Z,25.60
2022-08-21T08:55:12.030Z,25.40
2022-08-21T08:57:42.306Z,25.30
2022-08-21T09:00:13.094Z,25.20
2022-08-21T09:02:43.193Z,25.00
2022-08-21T09:05:15.874Z,24.90
2022-08-21T09:08:01.058Z,24.90
2022-08-21T09:10:34.570Z,24.80
2022-08-21T09:13:07.251Z,24.80
2022-08-21T09:16:00.561Z,24.70
2022-08-21T09:18:33.163Z,24.60
2022-08-21T09:21:11.900Z,24.60
2022-08-21T09:23:59.839Z,24.50
2022-08-21T09:26:52.253Z,24.60
2022-08-21T09:29:22.923Z,24.50
2022-08-21T09:31:52.389Z,24.40
2022-08-21T09:34:34.868Z,24.40
2022-08-21T09:37:04.329Z,24.30
2022-08-21T09:39:40.172Z,24.20
2022-08-21T09:42:11.385Z,24.20
2022-08-21T09:44:43.065Z,24.10
2022-08-21T09:47:14.713Z,24.10
2022-08-21T09:49:46.022Z,23.90
2022-08-21T09:52:23.828Z,23.90
2022-08-21T09:54:53.758Z,23.80
2022-08-21T09:57:50.569Z,23.70
2022-08-21T10:00:23.427Z,23.70
2022-08-21T10:02:52.923Z,23.60
2022-08-21T10:05:29.194Z,23.60
2022-08-21T10:07:58.668Z,23.50
2022-08-21T10:10:31.938Z,23.50
2022-08-21T10:13:13.305Z,23.40
2022-08-21T10:15:42.865Z,23.30
2022-08-21T10:18:12.297Z,23.20
2022-08-21T10:21:00.281Z,23.20
2022-08-21T10:23:45.261Z,23.20
2022-08-21T10:26:33.220Z,23.00
2022-08-21T10:29:05.606Z,23.00
2022-08-21T10:31:53.552Z,23.00
2022-08-21T10:34:41.213Z,22.90
2022-08-21T10:37:13.486Z,22.80
2022-08-21T10:39:46.996Z,22.90
2022-08-21T10:42:19.503Z,22.80
2022-08-21T10:44:51.954Z,22.80
2022-08-21T10:47:25.213Z,22.70
2022-08-21T10:50:14.817Z,22.70
2022-08-21T10:52:48.785Z,22.60
2022-08-21T10:55:38.023Z,22.60
2022-08-21T10:58:17.299Z,22.60
2022-08-21T11:00:52.089Z,22.50
2022-08-21T11:03:24.674Z,22.50
2022-08-21T11:05:55.562Z,22.50
2022-08-21T11:08:26.989Z,22.40
2022-08-21T11:11:08.799Z,22.40
2022-08-21T11:13:48.492Z,22.40
2022-08-21T11:16:36.384Z,22.30
2022-08-21T11:19:18.533Z,22.30
2022-08-21T11:22:17.227Z,22.30
2022-08-21T11:24:49.260Z,22.30
2022-08-21T11:27:24.799Z,22.30
2022-08-21T11:30:00.461Z,22.20
2022-08-21T11:32:47.915Z,22.20
2022-08-21T11:35:17.371Z,22.20
2022-08-21T11:38:01.730Z,22.20
2022-08-21T11:40:39.910Z,22.10
2022-08-21T11:43:25.966Z,22.10
2022-08-21T11:45:56.722Z,22.10
2022-08-21T11:48:32.339Z,22.00
2022-08-21T11:51:02.355Z,22.00
2022-08-21T11:53:32.121Z,22.10
2022-08-21T11:56:06.369Z,22.00
2022-08-21T11:58:42.551Z,22.00
2022-08-21T12:01:25.393Z,22.00
2022-08-21T12:03:59.609Z,22.00
2022-08-21T12:06:35.956Z,22.00
2022-08-21T12:09:09.591Z,21.90
2022-08-21T12:11:49.148Z,21.90
2022-08-21T12:14:20.049Z,21.90
2022-08-21T12:16:51.121Z,21.90
2022-08-21T12:19:23.727Z,21.90
2022-08-21T12:21:56.639Z,21.90
2022-08-21T12:24:29.254Z,21.90
2022-08-21T12:27:02.335Z,21.90
2022-08-21T12:29:33.709Z,21.80
2022-08-21T12:32:26.295Z,21.80
2022-08-21T12:35:15.157Z,21.80
2022-08-21T12:38:12.753Z,21.70
2022-08-21T12:40:46.004Z,21.70
2022-08-21T12:43:20.973Z,21.70
2022-08-21T12:45:51.205Z,21.80
2022-08-21T12:48:20.714Z,21.80
2022-08-21T12:50:54.300Z,21.70
2022-08-21T12:53:29.004Z,21.70
2022-08-21T12:56:03.366Z,21.60
2022-08-21T12:58:32.908Z,21.70
2022-08-21T13:01:08.241Z,21.60
2022-08-21T13:03:37.846Z,21.60
2022-08-21T13:06:07.757Z,21.60
2022-08-21T13:08:41.711Z,21.60
2022-08-21T13:11:15.141Z,21.60
2022-08-21T13:13:50.220Z,21.60
2022-08-21T13:16:23.029Z,21.60
2022-08-21T13:18:57.180Z,21.60
2022-08-21T13:21:37.411Z,21.60
2022-08-21T13:24:38.738Z,21.60
2022-08-21T13:27:02.461Z,21.50
2022-08-21T13:29:33.315Z,21.50
2022-08-21T13:32:04.099Z,21.50
2022-08-21T13:34:34.683Z,21.50
2022-08-21T13:37:05.511Z,21.50
2022-08-21T13:39:36.100Z,21.50
2022-08-21T13:42:11.332Z,21.50
2022-08-21T13:44:43.965Z,21.50
2022-08-21T13:47:15.572Z,21.50
2022-08-21T13:49:46.437Z,21.50
2022-08-21T13:52:22.780Z,21.40
2022-08-21T13:54:59.147Z,21.50
2022-08-21T13:57:32.724Z,21.50
2022-08-21T14:00:21.778Z,21.50
2022-08-21T14:02:52.083Z,21.50
2022-08-21T14:05:24.659Z,21.40
2022-08-21T14:07:55.225Z,21.50
2022-08-21T14:10:24.844Z,21.40
2022-08-21T14:12:56.395Z,21.40
2022-08-21T14:15:27.273Z,21.40
2022-08-21T14:17:57.206Z,21.40
2022-08-21T14:20:31.460Z,21.40
2022-08-21T14:23:01.255Z,21.40
2022-08-21T14:25:32.599Z,21.40
2022-08-21T14:28:09.890Z,21.40
2022-08-21T14:30:40.827Z,21.40
2022-08-21T14:33:11.819Z,21.40
2022-08-21T14:35:41.558Z,21.40
2022-08-21T14:38:17.334Z,21.40
2022-08-21T14:40:47.570Z,21.40
2022-08-21T14:43:17.167Z,21.40
2022-08-21T14:45:46.780Z,21.40
2022-08-21T14:48:16.476Z,21.40
2022-08-21T14:50:46.069Z,21.30
2022-08-21T14:53:15.749Z,21.40
2022-08-21T14:56:03.677Z,21.40
2022-08-21T14:58:33.673Z,21.30
2022-08-21T15:01:05.910Z,21.30
2022-08-21T15:03:36.138Z,21.30
2022-08-21T15:06:09.062Z,21.30
2022-08-21T15:08:39.034Z,21.30
2022-08-21T15:11:12.140Z,21.30
2022-08-21T15:13:44.398Z,21.30
2022-08-21T15:16:14.111Z,21.20
2022-08-21T15:18:44.081Z,21.30
2022-08-21T15:21:13.820Z,21.20
2022-08-21T15:23:43.854Z,21.30
2022-08-21T15:26:13.757Z,21.30
2022-08-21T15:28:43.396Z,21.30
2022-08-21T15:31:12.976Z,21.30
2022-08-21T15:33:42.593Z,21.30
2022-08-21T15:36:12.257Z,21.30
2022-08-21T15:38:46.040Z,21.30
2022-08-21T15:41:16.344Z,21.20
2022-08-21T15:43:47.778Z,21.20
2022-08-21T15:46:18.552Z,21.20
2022-08-21T15:48:54.367Z,21.20
2022-08-21T15:51:26.430Z,21.30
2022-08-21T15:53:56.016Z,21.30
2022-08-21T15:56:26.543Z,21.20
2022-08-21T15:58:56.859Z,21.30
2022-08-21T16:01:26.554Z,21.20
2022-08-21T16:03:56.075Z,21.30
2022-08-21T16:06:37.751Z,21.20
2022-08-21T16:09:15.129Z,21.10
2022-08-21T16:11:44.853Z,21.20
2022-08-21T16:14:15.035Z,21.20
2022-08-21T16:16:47.282Z,21.20
2022-08-21T16:19:17.420Z,21.20
2022-08-21T16:21:51.535Z,21.20
2022-08-21T16:24:21.210Z,21.20
2022-08-21T16:26:57.572Z,21.10
2022-08-21T16:29:32.603Z,21.10
2022-08-21T16:32:04.086Z,21.10
2022-08-21T16:34:38.548Z,21.10
2022-08-21T16:37:08.361Z,21.10
2022-08-21T16:39:40.547Z,21.10
2022-08-21T16:42:11.078Z,21.10
2022-08-21T16:44:40.770Z,21.10
2022-08-21T16:47:27.266Z,21.10
2022-08-21T16:49:57.030Z,21.10
2022-08-21T16:52:26.697Z,21.10
2022-08-21T16:54:56.473Z,21.10
2022-08-21T16:57:29.212Z,21.10
2022-08-21T16:59:58.906Z,21.10
2022-08-21T17:02:32.068Z,21.10
2022-08-21T17:05:03.697Z,21.10
2022-08-21T17:07:36.981Z,21.10
2022-08-21T17:10:08.496Z,21.10
2022-08-21T17:12:38.167Z,21.00
2022-08-21T17:15:14.374Z,21.00
2022-08-21T17:17:47.167Z,21.00
2022-08-21T17:20:16.953Z,21.00
2022-08-21T17:22:46.523Z,21.00
2022-08-21T17:25:16.353Z,21.00
2022-08-21T17:27:45.802Z,21.00
2022-08-21T17:30:15.289Z,21.00
2022-08-21T17:32:45.304Z,21.00
2022-08-21T17:35:14.804Z,21.00
2022-08-21T17:37:44.247Z,21.00
2022-08-21T17:40:15.601Z,21.00
2022-08-21T17:42:45.273Z,21.00
2022-08-21T17:45:16.080Z,20.90
2022-08-21T17:47:45.715Z,21.00
2022-08-21T17:50:15.366Z,21.00
2022-08-21T17:52:48.336Z,20.90
2022-08-21T17:55:18.423Z,21.00
2022-08-21T17:57:48.541Z,20.90
2022-08-21T18:00:18.705Z,20.90
2022-08-21T18:02:48.604Z,20.90
2022-08-21T18:05:18.095Z,20.90
2022-08-21T18:07:47.919Z,20.90
2022-08-21T18:10:17.862Z,20.90
2022-08-21T18:12:47.289Z,20.90
2022-08-21T18:15:17.691Z,20.90
2022-08-21T18:17:48.000Z,20.90
2022-08-21T18:20:20.897Z,20.80
2022-08-21T18:22:50.460Z,20.80
2022-08-21T18:25:19.998Z,20.90
2022-08-21T18:27:49.470Z,20.90
2022-08-21T18:30:19.685Z,20.90
2022-08-21T18:32:49.201Z,20.80
2022-08-21T18:35:18.672Z,20.80
2022-08-21T18:37:48.116Z,20.90
2022-08-21T18:40:17.597Z,20.90
2022-08-21T18:42:49.708Z,20.80
2022-08-21T18:45:24.986Z,20.90
2022-08-21T18:47:55.240Z,20.80
2022-08-21T18:50:26.418Z,20.80
2022-08-21T18:52:55.952Z,20.80
2022-08-21T18:55:25.768Z,20.80
2022-08-21T18:57:57.572Z,20.80
2022-08-21T19:00:28.602Z,20.80
2022-08-21T19:02:58.738Z,20.80
2022-08-21T19:05:29.075Z,20.80
2022-08-21T19:07:58.894Z,20.80
2022-08-21T19:10:29.654Z,20.80
2022-08-21T19:13:00.746Z,20.80
2022-08-21T19:15:30.817Z,20.80
2022-08-21T19:18:00.810Z,20.80
2022-08-21T19:20:34.152Z,20.80
2022-08-21T19:23:04.577Z,20.80
2022-08-21T19:25:34.555Z,20.80
2022-08-21T19:28:11.271Z,20.80
2022-08-21T19:30:42.165Z,20.70
2022-08-21T19:33:23.654Z,20.70
2022-08-21T19:35:53.846Z,20.70
2022-08-21T19:38:23.840Z,20.80
2022-08-21T19:40:53.541Z,20.80
2022-08-21T19:43:23.487Z,20.80
2022-08-21T19:45:57.416Z,20.70
2022-08-21T19:48:27.356Z,20.70
2022-08-21T19:50:57.365Z,20.70
2022-08-21T19:53:27.786Z,20.70
2022-08-21T19:55:57.240Z,20.70
2022-08-21T19:58:42.192Z,20.70
2022-08-21T20:01:16.748Z,20.70
2022-08-21T20:03:54.179Z,20.70
2022-08-21T20:06:24.445Z,20.70
2022-08-21T20:08:55.788Z,20.70
2022-08-21T20:11:33.388Z,20.70
2022-08-21T20:14:02.901Z,20.70
2022-08-21T20:16:32.509Z,20.70
2022-08-21T20:19:04.675Z,20.60
2022-08-21T20:21:43.897Z,20.70
2022-08-21T20:24:15.231Z,20.60
2022-08-21T20:26:49.176Z,20.70
2022-08-21T20:29:24.630Z,20.70
2022-08-21T20:31:59.440Z,20.70
2022-08-21T20:34:29.119Z,20.60
2022-08-21T20:36:58.661Z,20.70
2022-08-21T20:39:31.024Z,20.60
2022-08-21T20:42:00.489Z,20.60
2022-08-21T20:44:31.283Z,20.60
2022-08-21T20:47:00.941Z,20.60
2022-08-21T20:49:40.827Z,20.60
2022-08-21T20:52:10.920Z,20.70
2022-08-21T20:54:47.791Z,20.60
2022-08-21T20:57:27.124Z,20.60
2022-08-21T20:59:58.002Z,20.60
2022-08-21T21:02:30.857Z,20.70
2022-08-21T21:05:21.193Z,20.60
2022-08-21T21:08:17.418Z,20.60
2022-08-21T21:10:52.988Z,20.60
2022-08-21T21:13:25.333Z,20.60
2022-08-21T21:15:57.164Z,20.60
2022-08-21T21:18:47.621Z,20.60
2022-08-21T21:21:22.833Z,20.60
2022-08-21T21:23:56.297Z,20.50
2022-08-21T21:26:29.639Z,20.50
2022-08-21T21:29:31.037Z,20.60
2022-08-21T21:32:01.396Z,20.60
2022-08-21T21:34:38.272Z,20.60
2022-08-21T21:37:08.724Z,20.50
2022-08-21T21:39:56.256Z,20.50
2022-08-21T21:42:32.201Z,20.50
2022-08-21T21:45:12.219Z,20.50
2022-08-21T21:47:56.094Z,20.50
2022-08-21T21:50:43.444Z,20.60
2022-08-21T21:53:37.071Z,20.50
2022-08-21T21:56:17.346Z,20.50
2022-08-21T21:58:49.659Z,20.50
2022-08-21T22:01:25.111Z,20.50
2022-08-21T22:03:57.608Z,20.50
2022-08-21T22:09:37.805Z,20.50
2022-08-21T22:12:10.392Z,20.50
2022-08-21T22:14:41.155Z,20.40
2022-08-21T22:17:22.594Z,20.50
2022-08-21T22:19:52.160Z,20.50
2022-08-21T22:22:23.109Z,20.50
2022-08-21T22:24:54.557Z,20.40
2022-08-21T22:27:25.026Z,20.50
2022-08-21T22:29:55.395Z,20.50
2022-08-21T22:32:25.553Z,20.50
2022-08-21T22:35:13.914Z,20.40
2022-08-21T22:37:46.077Z,20.50
2022-08-21T22:40:23.906Z,20.50
2022-08-21T22:43:02.430Z,20.40
2022-08-21T22:45:33.012Z,20.40
2022-08-21T22:48:05.706Z,20.40
2022-08-21T22:50:41.034Z,20.50
2022-08-21T22:53:10.484Z,20.50
2022-08-21T22:55:49.888Z,20.50
2022-08-21T22:58:19.773Z,20.50
2022-08-21T23:00:51.531Z,20.50
2022-08-21T23:03:26.192Z,20.40
2022-08-21T23:06:12.863Z,20.40
2022-08-21T23:08:44.244Z,20.40
2022-08-21T23:11:15.362Z,20.50
2022-08-21T23:13:47.250Z,20.50
2022-08-21T23:16:31.857Z,20.50
2022-08-21T23:19:08.219Z,20.40
2022-08-21T23:21:52.777Z,20.40
2022-08-21T23:24:34.656Z,20.50
2022-08-21T23:27:09.202Z,20.40
2022-08-21T23:29:51.713Z,20.50
2022-08-21T23:32:35.294Z,20.50
2022-08-21T23:35:17.838Z,20.50
2022-08-21T23:37:55.173Z,20.50
2022-08-21T23:43:49.607Z,20.50
2022-08-21T23:46:19.204Z,20.50
2022-08-21T23:49:05.758Z,20.50
2022-08-21T23:51:35.492Z,20.50
2022-08-21T23:54:05.395Z,20.40
2022-08-21T23:56:38.042Z,20.50
2022-08-21T23:59:28.226Z,20.40
